Terminal Aerodrome Forecast
Issued by NWS

Home | Current Version | Previous Version | Text Only | Print | Product List | Glossary On
Versions: 1 2 3 4 5 6 7 8 9 10 11 12 13 14 15
000
FTUS42 TJSJ 270520
TAFJBQ
TAF
TJBQ 270520Z 2706/2806 11005KT P6SM FEW040 BKN080
     FM271400 07013KT P6SM SCT030
     FM271700 08015G25KT P6SM VCSH BKN035 BKN045 OVC070
     FM272200 11005KT P6SM FEW040
      AMD NOT SKED TIL 271100=

USA.gov is the U.S. government's official web portal to all federal, state and local government web resources and services.